sensor_id;sensor_type;location;lat;lon;timestamp;temperature;humidity
59881;DHT22;45751;51.380;10.326;2022-08-19T00:00:08;18.70;99.90
59881;DHT22;45751;51.380;10.326;2022-08-19T00:02:35;18.80;99.90
59881;DHT22;45751;51.380;10.326;2022-08-19T00:05:03;18.70;99.90
59881;DHT22;45751;51.380;10.326;2022-08-19T00:07:30;18.70;99.90
59881;DHT22;45751;51.380;10.326;2022-08-19T00:09:58;18.70;99.90
59881;DHT22;45751;51.380;10.326;2022-08-19T00:12:24;18.70;99.90
59881;DHT22;45751;51.380;10.326;2022-08-19T00:14:51;18.70;99.90
59881;DHT22;45751;51.380;10.326;2022-08-19T00:17:20;18.70;99.90
59881;DHT22;45751;51.380;10.326;2022-08-19T00:19:47;18.70;99.90
59881;DHT22;45751;51.380;10.326;2022-08-19T00:22:14;18.70;99.90
59881;DHT22;45751;51.380;10.326;2022-08-19T00:24:46;18.70;99.90
59881;DHT22;45751;51.380;10.326;2022-08-19T00:27:16;18.70;99.90
59881;DHT22;45751;51.380;10.326;2022-08-19T00:29:53;18.70;99.90
59881;DHT22;45751;51.380;10.326;2022-08-19T00:32:20;18.70;99.90
59881;DHT22;45751;51.380;10.326;2022-08-19T00:34:47;18.70;99.90
59881;DHT22;45751;51.380;10.326;2022-08-19T00:37:14;18.70;99.90
59881;DHT22;45751;51.380;10.326;2022-08-19T00:39:41;18.70;99.90
59881;DHT22;45751;51.380;10.326;2022-08-19T00:42:08;18.70;99.90
59881;DHT22;45751;51.380;10.326;2022-08-19T00:44:35;18.70;99.90
59881;DHT22;45751;51.380;10.326;2022-08-19T00:47:02;18.70;99.90
59881;DHT22;45751;51.380;10.326;2022-08-19T00:49:41;18.70;99.90
59881;DHT22;45751;51.380;10.326;2022-08-19T00:52:15;18.60;99.90
59881;DHT22;45751;51.380;10.326;2022-08-19T00:54:43;18.60;99.90
59881;DHT22;45751;51.380;10.326;2022-08-19T00:57:17;18.60;99.90
59881;DHT22;45751;51.380;10.326;2022-08-19T00:59:47;18.60;99.90
59881;DHT22;45751;51.380;10.326;2022-08-19T01:02:30;18.70;99.90
59881;DHT22;45751;51.380;10.326;2022-08-19T01:04:59;18.70;99.90
59881;DHT22;45751;51.380;10.326;2022-08-19T01:07:27;18.70;99.90
59881;DHT22;45751;51.380;10.326;2022-08-19T01:10:02;18.60;99.90
59881;DHT22;45751;51.380;10.326;2022-08-19T01:12:29;18.70;99.90
59881;DHT22;45751;51.380;10.326;2022-08-19T01:14:57;18.60;99.90
59881;DHT22;45751;51.380;10.326;2022-08-19T01:17:25;18.70;99.90
59881;DHT22;45751;51.380;10.326;2022-08-19T01:19:52;18.70;99.90
59881;DHT22;45751;51.380;10.326;2022-08-19T01:22:27;18.60;99.90
59881;DHT22;45751;51.380;10.326;2022-08-19T01:24:59;18.60;99.90
59881;DHT22;45751;51.380;10.326;2022-08-19T01:27:26;18.70;99.90
59881;DHT22;45751;51.380;10.326;2022-08-19T01:30:11;18.60;99.90
59881;DHT22;45751;51.380;10.326;2022-08-19T01:32:38;18.60;99.90
59881;DHT22;45751;51.380;10.326;2022-08-19T01:35:05;18.60;99.90
59881;DHT22;45751;51.380;10.326;2022-08-19T01:40:14;18.60;99.90
59881;DHT22;45751;51.380;10.326;2022-08-19T01:42:41;18.60;99.90
59881;DHT22;45751;51.380;10.326;2022-08-19T01:45:08;18.60;99.90
59881;DHT22;45751;51.380;10.326;2022-08-19T01:47:36;18.60;99.90
59881;DHT22;45751;51.380;10.326;2022-08-19T01:50:06;18.50;99.90
59881;DHT22;45751;51.380;10.326;2022-08-19T01:52:35;18.60;99.90
59881;DHT22;45751;51.380;10.326;2022-08-19T01:55:05;18.60;99.90
59881;DHT22;45751;51.380;10.326;2022-08-19T01:57:32;18.60;99.90
59881;DHT22;45751;51.380;10.326;2022-08-19T01:59:59;18.50;99.90
59881;DHT22;45751;51.380;10.326;2022-08-19T02:02:37;18.50;99.90
59881;DHT22;45751;51.380;10.326;2022-08-19T02:05:05;18.50;99.90
59881;DHT22;45751;51.380;10.326;2022-08-19T02:07:36;18.50;99.90
59881;DHT22;45751;51.380;10.326;2022-08-19T02:10:09;18.50;99.90
59881;DHT22;45751;51.380;10.326;2022-08-19T02:12:38;18.50;99.90
59881;DHT22;45751;51.380;10.326;2022-08-19T02:15:05;18.40;99.90
59881;DHT22;45751;51.380;10.326;2022-08-19T02:17:32;18.40;99.90
59881;DHT22;45751;51.380;10.326;2022-08-19T02:19:59;18.40;99.90
59881;DHT22;45751;51.380;10.326;2022-08-19T02:22:26;18.40;99.90
59881;DHT22;45751;51.380;10.326;2022-08-19T02:24:54;18.40;99.90
59881;DHT22;45751;51.380;10.326;2022-08-19T02:27:22;18.40;99.90
59881;DHT22;45751;51.380;10.326;2022-08-19T02:29:50;18.40;99.90
59881;DHT22;45751;51.380;10.326;2022-08-19T02:32:17;18.30;99.90
59881;DHT22;45751;51.380;10.326;2022-08-19T02:34:47;18.30;99.90
59881;DHT22;45751;51.380;10.326;2022-08-19T02:37:14;18.30;99.90
59881;DHT22;45751;51.380;10.326;2022-08-19T02:40:00;18.30;99.90
59881;DHT22;45751;51.380;10.326;2022-08-19T02:42:29;18.20;99.90
59881;DHT22;45751;51.380;10.326;2022-08-19T02:44:56;18.20;99.90
59881;DHT22;45751;51.380;10.326;2022-08-19T02:47:23;18.20;99.90
59881;DHT22;45751;51.380;10.326;2022-08-19T02:49:50;18.20;99.90
59881;DHT22;45751;51.380;10.326;2022-08-19T02:52:16;18.10;99.90
59881;DHT22;45751;51.380;10.326;2022-08-19T02:54:43;18.10;99.90
59881;DHT22;45751;51.380;10.326;2022-08-19T02:57:10;18.10;99.90
59881;DHT22;45751;51.380;10.326;2022-08-19T02:59:37;18.10;99.90
59881;DHT22;45751;51.380;10.326;2022-08-19T03:02:04;18.00;99.90
59881;DHT22;45751;51.380;10.326;2022-08-19T03:04:31;18.00;99.90
59881;DHT22;45751;51.380;10.326;2022-08-19T03:06:58;18.00;99.90
59881;DHT22;45751;51.380;10.326;2022-08-19T03:09:37;18.00;99.90
59881;DHT22;45751;51.380;10.326;2022-08-19T03:12:04;18.00;99.90
59881;DHT22;45751;51.380;10.326;2022-08-19T03:14:32;17.90;99.90
59881;DHT22;45751;51.380;10.326;2022-08-19T03:16:59;18.00;99.90
59881;DHT22;45751;51.380;10.326;2022-08-19T03:19:26;18.00;99.90
59881;DHT22;45751;51.380;10.326;2022-08-19T03:21:54;18.00;99.90
59881;DHT22;45751;51.380;10.326;2022-08-19T03:24:21;18.00;99.90
59881;DHT22;45751;51.380;10.326;2022-08-19T03:26:52;18.00;99.90
59881;DHT22;45751;51.380;10.326;2022-08-19T03:29:19;18.00;99.90
59881;DHT22;45751;51.380;10.326;2022-08-19T03:32:00;18.00;99.90
59881;DHT22;45751;51.380;10.326;2022-08-19T03:34:32;18.00;99.90
59881;DHT22;45751;51.380;10.326;2022-08-19T03:37:05;18.00;99.90
59881;DHT22;45751;51.380;10.326;2022-08-19T03:39:32;18.00;99.90
59881;DHT22;45751;51.380;10.326;2022-08-19T03:41:59;18.00;99.90
59881;DHT22;45751;51.380;10.326;2022-08-19T03:44:49;18.00;99.90
59881;DHT22;45751;51.380;10.326;2022-08-19T03:47:16;17.90;99.90
59881;DHT22;45751;51.380;10.326;2022-08-19T03:49:44;17.90;99.90
59881;DHT22;45751;51.380;10.326;2022-08-19T03:52:11;17.90;99.90
59881;DHT22;45751;51.380;10.326;2022-08-19T03:54:39;17.90;99.90
59881;DHT22;45751;51.380;10.326;2022-08-19T03:57:06;17.90;99.90
59881;DHT22;45751;51.380;10.326;2022-08-19T03:59:36;18.00;99.90
59881;DHT22;45751;51.380;10.326;2022-08-19T04:02:10;17.80;99.90
59881;DHT22;45751;51.380;10.326;2022-08-19T04:04:39;17.90;99.90
59881;DHT22;45751;51.380;10.326;2022-08-19T04:07:06;17.90;99.90
59881;DHT22;45751;51.380;10.326;2022-08-19T04:09:35;17.90;99.90
59881;DHT22;45751;51.380;10.326;2022-08-19T04:12:04;17.90;99.90
59881;DHT22;45751;51.380;10.326;2022-08-19T04:14:32;17.90;99.90
59881;DHT22;45751;51.380;10.326;2022-08-19T04:17:01;17.90;99.90
59881;DHT22;45751;51.380;10.326;2022-08-19T04:19:32;17.90;99.90
59881;DHT22;45751;51.380;10.326;2022-08-19T04:22:00;17.90;99.90
59881;DHT22;45751;51.380;10.326;2022-08-19T04:24:27;17.90;99.90
59881;DHT22;45751;51.380;10.326;2022-08-19T04:26:54;17.80;99.90
59881;DHT22;45751;51.380;10.326;2022-08-19T04:29:23;17.80;99.90
59881;DHT22;45751;51.380;10.326;2022-08-19T04:31:53;17.80;99.90
59881;DHT22;45751;51.380;10.326;2022-08-19T04:34:22;17.80;99.90
59881;DHT22;45751;51.380;10.326;2022-08-19T04:36:51;17.80;99.90
59881;DHT22;45751;51.380;10.326;2022-08-19T04:39:21;17.90;99.90
59881;DHT22;45751;51.380;10.326;2022-08-19T04:41:49;17.80;99.90
59881;DHT22;45751;51.380;10.326;2022-08-19T04:44:35;17.80;99.90
59881;DHT22;45751;51.380;10.326;2022-08-19T04:47:11;17.80;99.90
59881;DHT22;45751;51.380;10.326;2022-08-19T04:49:38;17.80;99.90
59881;DHT22;45751;51.380;10.326;2022-08-19T04:52:05;17.70;99.90
59881;DHT22;45751;51.380;10.326;2022-08-19T04:54:32;17.80;99.90
59881;DHT22;45751;51.380;10.326;2022-08-19T04:57:06;17.70;99.90
59881;DHT22;45751;51.380;10.326;2022-08-19T04:59:35;17.70;99.90
59881;DHT22;45751;51.380;10.326;2022-08-19T05:02:03;17.70;99.90
59881;DHT22;45751;51.380;10.326;2022-08-19T05:04:30;17.70;99.90
59881;DHT22;45751;51.380;10.326;2022-08-19T05:06:59;17.70;99.90
59881;DHT22;45751;51.380;10.326;2022-08-19T05:09:28;17.80;99.90
59881;DHT22;45751;51.380;10.326;2022-08-19T05:12:15;17.70;99.90
59881;DHT22;45751;51.380;10.326;2022-08-19T05:14:43;17.70;99.90
59881;DHT22;45751;51.380;10.326;2022-08-19T05:17:13;17.70;99.90
59881;DHT22;45751;51.380;10.326;2022-08-19T05:20:00;17.70;99.90
59881;DHT22;45751;51.380;10.326;2022-08-19T05:22:47;17.70;99.90
59881;DHT22;45751;51.380;10.326;2022-08-19T05:25:17;17.80;99.90
59881;DHT22;45751;51.380;10.326;2022-08-19T05:27:46;17.70;99.90
59881;DHT22;45751;51.380;10.326;2022-08-19T05:30:13;17.70;99.90
59881;DHT22;45751;51.380;10.326;2022-08-19T05:32:40;17.70;99.90
59881;DHT22;45751;51.380;10.326;2022-08-19T05:35:07;17.70;99.90
59881;DHT22;45751;51.380;10.326;2022-08-19T05:37:35;17.70;99.90
59881;DHT22;45751;51.380;10.326;2022-08-19T05:40:03;17.70;99.90
59881;DHT22;45751;51.380;10.326;2022-08-19T05:42:30;17.70;99.90
59881;DHT22;45751;51.380;10.326;2022-08-19T05:44:57;17.70;99.90
59881;DHT22;45751;51.380;10.326;2022-08-19T05:47:24;17.80;99.90
59881;DHT22;45751;51.380;10.326;2022-08-19T05:49:50;17.80;99.90
59881;DHT22;45751;51.380;10.326;2022-08-19T05:52:18;17.80;99.90
59881;DHT22;45751;51.380;10.326;2022-08-19T05:54:53;17.80;99.90
59881;DHT22;45751;51.380;10.326;2022-08-19T05:57:23;17.80;99.90
59881;DHT22;45751;51.380;10.326;2022-08-19T05:59:51;17.80;99.90
59881;DHT22;45751;51.380;10.326;2022-08-19T06:02:28;17.80;99.90
59881;DHT22;45751;51.380;10.326;2022-08-19T06:04:55;17.80;99.90
59881;DHT22;45751;51.380;10.326;2022-08-19T06:07:22;17.80;99.90
59881;DHT22;45751;51.380;10.326;2022-08-19T06:09:49;17.80;99.90
59881;DHT22;45751;51.380;10.326;2022-08-19T06:12:25;17.80;99.90
59881;DHT22;45751;51.380;10.326;2022-08-19T06:14:55;17.80;99.90
59881;DHT22;45751;51.380;10.326;2022-08-19T06:17:28;17.80;99.90
59881;DHT22;45751;51.380;10.326;2022-08-19T06:19:58;17.80;99.90
59881;DHT22;45751;51.380;10.326;2022-08-19T06:22:26;17.80;99.90
59881;DHT22;45751;51.380;10.326;2022-08-19T06:24:54;17.80;99.90
59881;DHT22;45751;51.380;10.326;2022-08-19T06:27:21;17.80;99.90
59881;DHT22;45751;51.380;10.326;2022-08-19T06:29:49;17.90;99.90
59881;DHT22;45751;51.380;10.326;2022-08-19T06:32:17;17.90;99.90
59881;DHT22;45751;51.380;10.326;2022-08-19T06:34:45;17.90;99.90
59881;DHT22;45751;51.380;10.326;2022-08-19T06:37:13;17.90;99.90
59881;DHT22;45751;51.380;10.326;2022-08-19T06:39:41;17.90;99.90
59881;DHT22;45751;51.380;10.326;2022-08-19T06:42:09;17.90;99.90
59881;DHT22;45751;51.380;10.326;2022-08-19T06:44:39;18.00;99.90
59881;DHT22;45751;51.380;10.326;2022-08-19T06:47:12;18.00;99.90
59881;DHT22;45751;51.380;10.326;2022-08-19T06:49:48;18.00;99.90
59881;DHT22;45751;51.380;10.326;2022-08-19T06:52:15;18.00;99.90
59881;DHT22;45751;51.380;10.326;2022-08-19T06:54:42;18.10;99.40
59881;DHT22;45751;51.380;10.326;2022-08-19T06:57:23;18.00;98.50
59881;DHT22;45751;51.380;10.326;2022-08-19T06:59:51;18.20;98.40
59881;DHT22;45751;51.380;10.326;2022-08-19T07:02:19;18.20;98.10
59881;DHT22;45751;51.380;10.326;2022-08-19T07:04:47;18.20;96.00
59881;DHT22;45751;51.380;10.326;2022-08-19T07:07:19;18.20;96.20
59881;DHT22;45751;51.380;10.326;2022-08-19T07:09:48;18.20;95.70
59881;DHT22;45751;51.380;10.326;2022-08-19T07:12:29;18.20;94.10
59881;DHT22;45751;51.380;10.326;2022-08-19T07:15:03;18.20;94.10
59881;DHT22;45751;51.380;10.326;2022-08-19T07:17:31;18.30;94.00
59881;DHT22;45751;51.380;10.326;2022-08-19T07:20:00;18.30;94.30
59881;DHT22;45751;51.380;10.326;2022-08-19T07:22:39;18.30;94.50
59881;DHT22;45751;51.380;10.326;2022-08-19T07:25:08;18.30;94.10
59881;DHT22;45751;51.380;10.326;2022-08-19T07:27:36;18.30;94.00
59881;DHT22;45751;51.380;10.326;2022-08-19T07:30:07;18.30;93.80
59881;DHT22;45751;51.380;10.326;2022-08-19T07:32:38;18.40;93.70
59881;DHT22;45751;51.380;10.326;2022-08-19T07:35:05;18.40;94.10
59881;DHT22;45751;51.380;10.326;2022-08-19T07:37:32;18.40;94.00
59881;DHT22;45751;51.380;10.326;2022-08-19T07:40:02;18.40;94.50
59881;DHT22;45751;51.380;10.326;2022-08-19T07:42:29;18.40;93.50
59881;DHT22;45751;51.380;10.326;2022-08-19T07:44:57;18.40;93.40
59881;DHT22;45751;51.380;10.326;2022-08-19T07:47:24;18.40;92.80
59881;DHT22;45751;51.380;10.326;2022-08-19T07:50:12;18.40;92.40
59881;DHT22;45751;51.380;10.326;2022-08-19T07:52:39;18.50;92.10
59881;DHT22;45751;51.380;10.326;2022-08-19T07:55:09;18.50;92.00
59881;DHT22;45751;51.380;10.326;2022-08-19T07:57:56;18.50;91.60
59881;DHT22;45751;51.380;10.326;2022-08-19T08:00:24;18.50;90.80
59881;DHT22;45751;51.380;10.326;2022-08-19T08:02:52;18.50;91.20
59881;DHT22;45751;51.380;10.326;2022-08-19T08:05:24;18.50;91.10
59881;DHT22;45751;51.380;10.326;2022-08-19T08:08:13;18.50;90.60
59881;DHT22;45751;51.380;10.326;2022-08-19T08:10:59;18.50;90.60
59881;DHT22;45751;51.380;10.326;2022-08-19T08:13:27;18.50;90.50
59881;DHT22;45751;51.380;10.326;2022-08-19T08:15:55;18.50;90.80
59881;DHT22;45751;51.380;10.326;2022-08-19T08:18:26;18.50;90.50
59881;DHT22;45751;51.380;10.326;2022-08-19T08:20:56;18.50;90.80
59881;DHT22;45751;51.380;10.326;2022-08-19T08:23:24;18.60;90.10
59881;DHT22;45751;51.380;10.326;2022-08-19T08:25:54;18.50;90.00
59881;DHT22;45751;51.380;10.326;2022-08-19T08:28:24;18.60;90.10
59881;DHT22;45751;51.380;10.326;2022-08-19T08:30:54;18.60;90.50
59881;DHT22;45751;51.380;10.326;2022-08-19T08:33:24;18.60;90.40
59881;DHT22;45751;51.380;10.326;2022-08-19T08:36:01;18.60;89.80
59881;DHT22;45751;51.380;10.326;2022-08-19T08:38:30;18.60;90.00
59881;DHT22;45751;51.380;10.326;2022-08-19T08:43:56;18.50;90.60
59881;DHT22;45751;51.380;10.326;2022-08-19T08:46:39;18.50;90.60
59881;DHT22;45751;51.380;10.326;2022-08-19T08:49:43;18.60;90.70
59881;DHT22;45751;51.380;10.326;2022-08-19T08:52:21;18.60;91.00
59881;DHT22;45751;51.380;10.326;2022-08-19T08:54:54;18.60;91.10
59881;DHT22;45751;51.380;10.326;2022-08-19T09:00:15;18.70;90.80
59881;DHT22;45751;51.380;10.326;2022-08-19T09:02:43;18.70;90.50
59881;DHT22;45751;51.380;10.326;2022-08-19T09:05:16;18.70;90.70
59881;DHT22;45751;51.380;10.326;2022-08-19T09:08:08;18.70;90.80
59881;DHT22;45751;51.380;10.326;2022-08-19T09:10:53;18.80;90.80
59881;DHT22;45751;51.380;10.326;2022-08-19T09:13:58;18.70;90.70
59881;DHT22;45751;51.380;10.326;2022-08-19T09:16:28;18.80;90.60
59881;DHT22;45751;51.380;10.326;2022-08-19T09:19:03;18.90;90.00
59881;DHT22;45751;51.380;10.326;2022-08-19T09:21:32;18.90;90.20
59881;DHT22;45751;51.380;10.326;2022-08-19T09:24:01;19.00;90.20
59881;DHT22;45751;51.380;10.326;2022-08-19T09:26:30;19.00;90.00
59881;DHT22;45751;51.380;10.326;2022-08-19T09:29:18;19.00;89.50
59881;DHT22;45751;51.380;10.326;2022-08-19T09:31:48;19.00;89.00
59881;DHT22;45751;51.380;10.326;2022-08-19T09:34:16;19.00;90.00
59881;DHT22;45751;51.380;10.326;2022-08-19T09:36:50;19.10;90.10
59881;DHT22;45751;51.380;10.326;2022-08-19T09:39:21;19.10;90.20
59881;DHT22;45751;51.380;10.326;2022-08-19T09:41:48;19.20;90.30
59881;DHT22;45751;51.380;10.326;2022-08-19T09:44:17;19.10;90.00
59881;DHT22;45751;51.380;10.326;2022-08-19T09:46:45;19.30;90.60
59881;DHT22;45751;51.380;10.326;2022-08-19T09:49:18;19.30;87.60
59881;DHT22;45751;51.380;10.326;2022-08-19T09:51:49;19.40;86.80
59881;DHT22;45751;51.380;10.326;2022-08-19T09:54:17;19.40;85.40
59881;DHT22;45751;51.380;10.326;2022-08-19T09:56:49;19.50;84.90
59881;DHT22;45751;51.380;10.326;2022-08-19T09:59:16;19.50;84.90
59881;DHT22;45751;51.380;10.326;2022-08-19T10:01:43;19.50;84.60
59881;DHT22;45751;51.380;10.326;2022-08-19T10:04:11;19.50;82.60
59881;DHT22;45751;51.380;10.326;2022-08-19T10:06:45;19.60;81.40
59881;DHT22;45751;51.380;10.326;2022-08-19T10:09:19;19.60;83.20
59881;DHT22;45751;51.380;10.326;2022-08-19T10:12:00;19.70;83.90
59881;DHT22;45751;51.380;10.326;2022-08-19T10:14:28;19.70;81.30
59881;DHT22;45751;51.380;10.326;2022-08-19T10:16:55;19.80;80.40
59881;DHT22;45751;51.380;10.326;2022-08-19T10:19:25;19.80;78.30
59881;DHT22;45751;51.380;10.326;2022-08-19T10:21:53;19.90;76.50
59881;DHT22;45751;51.380;10.326;2022-08-19T10:24:26;19.90;76.70
59881;DHT22;45751;51.380;10.326;2022-08-19T10:26:54;20.00;77.60
59881;DHT22;45751;51.380;10.326;2022-08-19T10:29:26;20.00;78.40
59881;DHT22;45751;51.380;10.326;2022-08-19T10:32:00;20.00;79.10
59881;DHT22;45751;51.380;10.326;2022-08-19T10:34:30;20.10;78.80
59881;DHT22;45751;51.380;10.326;2022-08-19T10:36:57;20.10;78.10
59881;DHT22;45751;51.380;10.326;2022-08-19T10:39:31;20.20;78.20
59881;DHT22;45751;51.380;10.326;2022-08-19T10:42:09;20.20;77.20
59881;DHT22;45751;51.380;10.326;2022-08-19T10:44:41;20.20;76.60
59881;DHT22;45751;51.380;10.326;2022-08-19T10:47:09;20.20;76.90
59881;DHT22;45751;51.380;10.326;2022-08-19T10:49:50;20.20;79.00
59881;DHT22;45751;51.380;10.326;2022-08-19T10:52:43;20.30;76.70
59881;DHT22;45751;51.380;10.326;2022-08-19T10:55:20;20.20;76.60
59881;DHT22;45751;51.380;10.326;2022-08-19T10:58:14;20.20;75.70
59881;DHT22;45751;51.380;10.326;2022-08-19T11:00:42;20.20;76.20
59881;DHT22;45751;51.380;10.326;2022-08-19T11:03:12;20.20;76.80
59881;DHT22;45751;51.380;10.326;2022-08-19T11:05:39;20.20;77.30
59881;DHT22;45751;51.380;10.326;2022-08-19T11:08:10;20.30;77.10
59881;DHT22;45751;51.380;10.326;2022-08-19T11:10:54;20.20;77.00
59881;DHT22;45751;51.380;10.326;2022-08-19T11:13:29;20.40;76.60
59881;DHT22;45751;51.380;10.326;2022-08-19T11:16:00;20.40;75.00
59881;DHT22;45751;51.380;10.326;2022-08-19T11:18:35;20.40;74.00
59881;DHT22;45751;51.380;10.326;2022-08-19T11:21:24;20.40;74.30
59881;DHT22;45751;51.380;10.326;2022-08-19T11:23:53;20.40;74.50
59881;DHT22;45751;51.380;10.326;2022-08-19T11:26:23;20.50;75.40
59881;DHT22;45751;51.380;10.326;2022-08-19T11:28:51;20.50;73.40
59881;DHT22;45751;51.380;10.326;2022-08-19T11:31:25;20.50;73.10
59881;DHT22;45751;51.380;10.326;2022-08-19T11:33:59;20.60;73.10
59881;DHT22;45751;51.380;10.326;2022-08-19T11:36:27;20.70;72.90
59881;DHT22;45751;51.380;10.326;2022-08-19T11:38:54;20.70;72.40
59881;DHT22;45751;51.380;10.326;2022-08-19T11:41:22;20.80;72.60
59881;DHT22;45751;51.380;10.326;2022-08-19T11:43:50;20.90;71.70
59881;DHT22;45751;51.380;10.326;2022-08-19T11:46:21;20.90;71.30
59881;DHT22;45751;51.380;10.326;2022-08-19T11:48:49;21.00;71.00
59881;DHT22;45751;51.380;10.326;2022-08-19T11:51:20;21.10;70.20
59881;DHT22;45751;51.380;10.326;2022-08-19T11:53:48;21.20;69.80
59881;DHT22;45751;51.380;10.326;2022-08-19T11:56:18;21.30;70.90
59881;DHT22;45751;51.380;10.326;2022-08-19T11:58:45;21.40;68.60
59881;DHT22;45751;51.380;10.326;2022-08-19T12:01:14;21.50;67.20
59881;DHT22;45751;51.380;10.326;2022-08-19T12:03:46;21.50;66.80
59881;DHT22;45751;51.380;10.326;2022-08-19T12:06:18;21.70;66.00
59881;DHT22;45751;51.380;10.326;2022-08-19T12:08:46;21.80;64.80
59881;DHT22;45751;51.380;10.326;2022-08-19T12:11:14;21.80;64.30
59881;DHT22;45751;51.380;10.326;2022-08-19T12:13:41;21.90;63.80
59881;DHT22;45751;51.380;10.326;2022-08-19T12:16:20;22.00;63.20
59881;DHT22;45751;51.380;10.326;2022-08-19T12:18:47;22.10;62.70
59881;DHT22;45751;51.380;10.326;2022-08-19T12:21:25;22.20;62.20
59881;DHT22;45751;51.380;10.326;2022-08-19T12:23:58;22.30;61.10
59881;DHT22;45751;51.380;10.326;2022-08-19T12:26:26;22.30;60.10
59881;DHT22;45751;51.380;10.326;2022-08-19T12:28:54;22.40;59.90
59881;DHT22;45751;51.380;10.326;2022-08-19T12:31:21;22.50;59.90
59881;DHT22;45751;51.380;10.326;2022-08-19T12:33:48;22.60;58.40
59881;DHT22;45751;51.380;10.326;2022-08-19T12:36:16;22.70;56.90
59881;DHT22;45751;51.380;10.326;2022-08-19T12:38:44;22.80;55.40
59881;DHT22;45751;51.380;10.326;2022-08-19T12:41:15;22.80;55.10
59881;DHT22;45751;51.380;10.326;2022-08-19T12:43:45;22.90;54.60
59881;DHT22;45751;51.380;10.326;2022-08-19T12:46:13;23.00;54.00
59881;DHT22;45751;51.380;10.326;2022-08-19T12:48:42;23.20;52.80
59881;DHT22;45751;51.380;10.326;2022-08-19T12:51:17;23.20;52.50
59881;DHT22;45751;51.380;10.326;2022-08-19T12:53:46;23.30;52.70
59881;DHT22;45751;51.380;10.326;2022-08-19T12:56:13;23.30;52.70
59881;DHT22;45751;51.380;10.326;2022-08-19T12:58:42;23.50;52.20
59881;DHT22;45751;51.380;10.326;2022-08-19T13:01:17;23.60;50.20
59881;DHT22;45751;51.380;10.326;2022-08-19T13:03:49;23.70;50.00
59881;DHT22;45751;51.380;10.326;2022-08-19T13:06:17;23.70;50.10
59881;DHT22;45751;51.380;10.326;2022-08-19T13:08:46;23.70;49.60
59881;DHT22;45751;51.380;10.326;2022-08-19T13:11:18;23.70;48.70
59881;DHT22;45751;51.380;10.326;2022-08-19T13:13:48;23.80;49.10
59881;DHT22;45751;51.380;10.326;2022-08-19T13:16:15;23.90;48.70
59881;DHT22;45751;51.380;10.326;2022-08-19T13:18:45;23.90;48.50
59881;DHT22;45751;51.380;10.326;2022-08-19T13:21:14;24.00;47.90
59881;DHT22;45751;51.380;10.326;2022-08-19T13:23:41;24.00;47.50
59881;DHT22;45751;51.380;10.326;2022-08-19T13:26:10;24.10;47.20
59881;DHT22;45751;51.380;10.326;2022-08-19T13:28:38;24.20;47.30
59881;DHT22;45751;51.380;10.326;2022-08-19T13:31:26;24.30;47.30
59881;DHT22;45751;51.380;10.326;2022-08-19T13:34:12;24.40;46.90
59881;DHT22;45751;51.380;10.326;2022-08-19T13:36:39;24.40;47.30
59881;DHT22;45751;51.380;10.326;2022-08-19T13:39:07;24.50;47.00
59881;DHT22;45751;51.380;10.326;2022-08-19T13:41:36;24.50;47.20
59881;DHT22;45751;51.380;10.326;2022-08-19T13:44:04;24.60;47.10
59881;DHT22;45751;51.380;10.326;2022-08-19T13:46:32;24.70;46.70
59881;DHT22;45751;51.380;10.326;2022-08-19T13:48:59;24.70;46.30
59881;DHT22;45751;51.380;10.326;2022-08-19T13:51:26;24.70;46.30
59881;DHT22;45751;51.380;10.326;2022-08-19T13:53:53;24.70;46.20
59881;DHT22;45751;51.380;10.326;2022-08-19T13:56:22;24.70;45.90
59881;DHT22;45751;51.380;10.326;2022-08-19T13:58:52;24.70;47.60
59881;DHT22;45751;51.380;10.326;2022-08-19T14:01:21;24.60;47.80
59881;DHT22;45751;51.380;10.326;2022-08-19T14:03:50;24.70;47.00
59881;DHT22;45751;51.380;10.326;2022-08-19T14:06:17;24.70;47.30
59881;DHT22;45751;51.380;10.326;2022-08-19T14:08:46;24.60;46.70
59881;DHT22;45751;51.380;10.326;2022-08-19T14:11:13;24.70;46.90
59881;DHT22;45751;51.380;10.326;2022-08-19T14:13:40;24.70;46.90
59881;DHT22;45751;51.380;10.326;2022-08-19T14:16:12;24.80;46.90
59881;DHT22;45751;51.380;10.326;2022-08-19T14:18:40;24.80;46.50
59881;DHT22;45751;51.380;10.326;2022-08-19T14:21:18;24.90;46.00
59881;DHT22;45751;51.380;10.326;2022-08-19T14:23:47;25.00;45.30
59881;DHT22;45751;51.380;10.326;2022-08-19T14:26:16;25.00;45.20
59881;DHT22;45751;51.380;10.326;2022-08-19T14:28:45;25.00;45.20
59881;DHT22;45751;51.380;10.326;2022-08-19T14:31:14;25.00;45.30
59881;DHT22;45751;51.380;10.326;2022-08-19T14:33:46;25.10;45.10
59881;DHT22;45751;51.380;10.326;2022-08-19T14:36:13;25.20;45.20
59881;DHT22;45751;51.380;10.326;2022-08-19T14:38:41;25.20;44.90
59881;DHT22;45751;51.380;10.326;2022-08-19T14:41:17;25.20;45.10
59881;DHT22;45751;51.380;10.326;2022-08-19T14:43:48;25.20;45.30
59881;DHT22;45751;51.380;10.326;2022-08-19T14:46:17;25.20;45.00
59881;DHT22;45751;51.380;10.326;2022-08-19T14:48:47;25.20;44.50
59881;DHT22;45751;51.380;10.326;2022-08-19T14:51:20;25.20;44.50
59881;DHT22;45751;51.380;10.326;2022-08-19T14:53:47;25.20;44.70
59881;DHT22;45751;51.380;10.326;2022-08-19T14:56:20;25.20;44.30
59881;DHT22;45751;51.380;10.326;2022-08-19T14:58:48;25.30;44.40
59881;DHT22;45751;51.380;10.326;2022-08-19T15:01:21;25.30;44.40
59881;DHT22;45751;51.380;10.326;2022-08-19T15:03:49;25.40;44.10
59881;DHT22;45751;51.380;10.326;2022-08-19T15:06:16;25.40;43.90
59881;DHT22;45751;51.380;10.326;2022-08-19T15:08:44;25.40;43.70
59881;DHT22;45751;51.380;10.326;2022-08-19T15:11:15;25.40;43.60
59881;DHT22;45751;51.380;10.326;2022-08-19T15:13:43;25.40;43.40
59881;DHT22;45751;51.380;10.326;2022-08-19T15:16:14;25.40;43.10
59881;DHT22;45751;51.380;10.326;2022-08-19T15:18:46;25.40;43.10
59881;DHT22;45751;51.380;10.326;2022-08-19T15:21:16;25.40;43.30
59881;DHT22;45751;51.380;10.326;2022-08-19T15:23:55;25.50;43.60
59881;DHT22;45751;51.380;10.326;2022-08-19T15:26:23;25.50;43.50
59881;DHT22;45751;51.380;10.326;2022-08-19T15:28:53;25.50;42.90
59881;DHT22;45751;51.380;10.326;2022-08-19T15:31:21;25.60;43.00
59881;DHT22;45751;51.380;10.326;2022-08-19T15:33:56;25.60;42.60
59881;DHT22;45751;51.380;10.326;2022-08-19T15:36:25;25.70;42.20
59881;DHT22;45751;51.380;10.326;2022-08-19T15:38:53;25.80;41.60
59881;DHT22;45751;51.380;10.326;2022-08-19T15:41:27;25.80;41.60
59881;DHT22;45751;51.380;10.326;2022-08-19T15:43:59;25.90;41.10